M/T Vemaoil Xi — 9HWD7 — position and weather

sailwx.info

Track history (hours):
 
Tides and Currents Weather Stations Pressure Air Temp Water Temp Dewpoint Dewpoint Depression Visibility Wind Speed Wind Dir Waves Ship Positions

M/T Vemaoil Xi

Last reported at 2016-Jul-25 17:17 UTC. Time now 2016-Jul-25 17:51 UTC.
Position N 35°49' E 014°35'.

Length 105 m; draft 6 m.

Type: Tanker. MMSI: 215631000.

Date/timePositionNaut miles runAvg speedWind from/ knotsBaromVisibWave heightAir tempDewpointWater temp
2016-Jul-25 17:17N 35°49' E 014°35'1 0.2
2016-Jul-25 13:25N 35°49' E 014°35'2 0.8
2016-Jul-25 11:15N 35°49' E 014°33'0 0.0
2016-Jul-25 10:09N 35°49' E 014°33'0 0.0
2016-Jul-25 09:33N 35°49' E 014°33'0 0.0
2016-Jul-25 08:30N 35°49' E 014°33'0 0.0
2016-Jul-25 07:27N 35°49' E 014°33'1 0.9
2016-Jul-25 06:33N 35°49' E 014°33'3 2.4
2016-Jul-25 05:27N 35°51' E 014°36'0 0.0
2016-Jul-25 04:33N 35°51' E 014°36'0 0.0
2016-Jul-25 03:33N 35°51' E 014°36'0 0.0
2016-Jul-25 02:30N 35°51' E 014°36'0 0.0
2016-Jul-25 01:33N 35°51' E 014°36'0 0.0
2016-Jul-25 00:27N 35°51' E 014°36'0 0.0
2016-Jul-24 23:33N 35°51' E 014°36'0 0.0
2016-Jul-24 22:30N 35°51' E 014°36'0 0.0
2016-Jul-24 21:21N 35°51' E 014°36'0 0.0
2016-Jul-24 20:33N 35°51' E 014°36'0 0.0
2016-Jul-24 19:27N 35°51' E 014°36'0 0.0
2016-Jul-24 17:30N 35°51' E 014°36'0 0.0
2016-Jul-24 16:24N 35°51' E 014°36'0 0.0
2016-Jul-24 15:21N 35°51' E 014°36'0 0.0
2016-Jul-24 14:30N 35°51' E 014°36'0 0.0
2016-Jul-24 13:30N 35°51' E 014°36'0 0.0
2016-Jul-24 12:33N 35°51' E 014°36'0 0.0
2016-Jul-24 11:33N 35°51' E 014°36'0 0.0
2016-Jul-24 10:24N 35°51' E 014°36'0 0.0
2016-Jul-24 09:33N 35°51' E 014°36'0 0.0
2016-Jul-24 08:33N 35°51' E 014°36'0 0.0
2016-Jul-24 07:30N 35°51' E 014°36'0 0.0
2016-Jul-24 06:33N 35°51' E 014°36'0 0.0
2016-Jul-24 05:33N 35°51' E 014°36'0 0.0
2016-Jul-24 04:27N 35°51' E 014°36'0 0.0
2016-Jul-24 03:33N 35°51' E 014°36'0 0.0
2016-Jul-24 02:33N 35°51' E 014°36'0 0.0
2016-Jul-24 01:21N 35°51' E 014°36'0 0.0
2016-Jul-23 22:09N 35°51' E 014°36'0 0.1
2016-Jul-23 21:30N 35°51' E 014°36'0 0.0
2016-Jul-23 20:33N 35°51' E 014°36'0 0.0
2016-Jul-23 19:27N 35°51' E 014°36'0 0.0
2016-Jul-23 18:33N 35°51' E 014°36'0 0.0
2016-Jul-23 17:33N 35°51' E 014°36'0 0.0
2016-Jul-23 16:33N 35°51' E 014°36'0 0.0
2016-Jul-23 14:30N 35°51' E 014°36'0 0.0
2016-Jul-23 13:33N 35°51' E 014°36'0 0.0
2016-Jul-23 12:33N 35°51' E 014°36'0 0.0
2016-Jul-23 11:33N 35°51' E 014°36'1 1.4
2016-Jul-23 10:33N 35°49' E 014°35'2 2.0
2016-Jul-23 09:33N 35°49' E 014°33'0 0.0
2016-Jul-23 08:33N 35°49' E 014°33'0 0.0
2016-Jul-23 07:33N 35°49' E 014°33'0 0.0
2016-Jul-23 04:17N 35°49' E 014°33'0 0.0
2016-Jul-23 03:33N 35°49' E 014°33'0 0.0
2016-Jul-23 02:33N 35°49' E 014°33'0 0.0
2016-Jul-23 01:32N 35°49' E 014°33'0 0.0
2016-Jul-22 23:33N 35°49' E 014°33'0 0.3
2016-Jul-22 22:33N 35°49' E 014°33'2 1.7
2016-Jul-22 21:33N 35°49' E 014°35'0 0.0
2016-Jul-22 20:33N 35°49' E 014°35'1 0.7
2016-Jul-22 19:33N 35°49' E 014°36'7 7.1
2016-Jul-22 18:33N 35°52' E 014°44'1 0.7
2016-Jul-22 17:34N 35°53' E 014°45'0 0.0
2016-Jul-22 16:33N 35°53' E 014°45'0 0.0
2016-Jul-22 15:33N 35°53' E 014°45'0 0.0
2016-Jul-22 14:34N 35°53' E 014°45'0 0.0
2016-Jul-22 13:10N 35°53' E 014°45'0 0.0
2016-Jul-22 12:33N 35°53' E 014°45'6 6.1
2016-Jul-22 11:33N 35°50' E 014°38'5 4.7
2016-Jul-22 10:33N 35°49' E 014°32'0 0.0
2016-Jul-22 09:33N 35°49' E 014°32'0 0.0
2016-Jul-21 20:33N 35°49' E 014°33'0 0.0
2016-Jul-21 19:32N 35°49' E 014°33'0 0.0
2016-Jul-21 18:27N 35°49' E 014°33'0 0.0
2016-Jul-21 17:33N 35°49' E 014°33'0 0.0
2016-Jul-21 16:08N 35°49' E 014°33'0 0.0
2016-Jul-21 15:30N 35°49' E 014°33'0 0.0
2016-Jul-21 13:25N 35°49' E 014°33'0 0.4
2016-Jul-21 12:33N 35°49' E 014°32'2 2.2
2016-Jul-21 11:33N 35°49' E 014°35'0 0.0
2016-Jul-21 10:33N 35°49' E 014°35'0 0.0
2016-Jul-21 09:33N 35°49' E 014°35'0 0.0
2016-Jul-21 08:33N 35°49' E 014°35'0 0.1
2016-Jul-21 07:34N 35°49' E 014°35'5 5.5
2016-Jul-21 06:33N 35°54' E 014°32'2 0.3
2016-Jul-20 22:30N 35°53' E 014°30'0 0.0
2016-Jul-20 21:11N 35°53' E 014°30'0 0.0
2016-Jul-20 20:33N 35°53' E 014°30'0 0.0
2016-Jul-20 19:33N 35°53' E 014°30'0 0.0
2016-Jul-20 18:33N 35°53' E 014°30'1 0.3
2016-Jul-20 14:30N 35°54' E 014°31'6 6.4
2016-Jul-20 13:34N 35°55' E 014°39'5 0.3
2016-Jul-19 18:08N 35°50' E 014°36'0 0.1
2016-Jul-19 17:26N 35°50' E 014°36'1 0.3
2016-Jul-19 15:28N 35°49' E 014°35'0 0.0
2016-Jul-19 14:31N 35°49' E 014°35'0 0.0
2016-Jul-19 13:31N 35°49' E 014°35'0 0.0
2016-Jul-19 12:31N 35°49' E 014°35'0 0.0
2016-Jul-19 11:31N 35°49' E 014°35'0 0.0
2016-Jul-19 10:31N 35°49' E 014°35'0 0.0
2016-Jul-19 09:31N 35°49' E 014°35'0 0.2
2016-Jul-19 08:33N 35°49' E 014°35'5 5.5
2016-Jul-19 07:33N 35°54' E 014°33'2 2.2
2016-Jul-19 06:31N 35°53' E 014°30'6 0.2
2016-Jul-17 18:22N 35°49' E 014°35'0 0.0
2016-Jul-17 17:31N 35°49' E 014°35'0 0.0
2016-Jul-17 16:31N 35°49' E 014°35'0 0.0
2016-Jul-17 15:31N 35°49' E 014°35'0 0.0
2016-Jul-17 14:13N 35°49' E 014°35'  
Track history (hours):
 
Tides and Currents Weather Stations Pressure Air Temp Water Temp Dewpoint Dewpoint Depression Visibility Wind Speed Wind Dir Waves Ship Positions

M/T Vemaoil Xi

Last reported at 2016-Jul-25 17:17 UTC. Time now 2016-Jul-25 17:51 UTC.
Position N 35°49' E 014°35'.

Length 105 m; draft 6 m.

Type: Tanker. MMSI: 215631000.

Date/timePositionNaut miles runAvg speedWind from/ knotsBaromVisibWave heightAir tempDewpointWater temp
2016-Jul-25 17:17N 35°49' E 014°35'1 0.2
2016-Jul-25 13:25N 35°49' E 014°35'2 0.8
2016-Jul-25 11:15N 35°49' E 014°33'0 0.0
2016-Jul-25 10:09N 35°49' E 014°33'0 0.0
2016-Jul-25 09:33N 35°49' E 014°33'0 0.0
2016-Jul-25 08:30N 35°49' E 014°33'0 0.0
2016-Jul-25 07:27N 35°49' E 014°33'1 0.9
2016-Jul-25 06:33N 35°49' E 014°33'3 2.4
2016-Jul-25 05:27N 35°51' E 014°36'0 0.0
2016-Jul-25 04:33N 35°51' E 014°36'0 0.0
2016-Jul-25 03:33N 35°51' E 014°36'0 0.0
2016-Jul-25 02:30N 35°51' E 014°36'0 0.0
2016-Jul-25 01:33N 35°51' E 014°36'0 0.0
2016-Jul-25 00:27N 35°51' E 014°36'0 0.0
2016-Jul-24 23:33N 35°51' E 014°36'0 0.0
2016-Jul-24 22:30N 35°51' E 014°36'0 0.0
2016-Jul-24 21:21N 35°51' E 014°36'0 0.0
2016-Jul-24 20:33N 35°51' E 014°36'0 0.0
2016-Jul-24 19:27N 35°51' E 014°36'0 0.0
2016-Jul-24 17:30N 35°51' E 014°36'0 0.0
2016-Jul-24 16:24N 35°51' E 014°36'0 0.0
2016-Jul-24 15:21N 35°51' E 014°36'0 0.0
2016-Jul-24 14:30N 35°51' E 014°36'0 0.0
2016-Jul-24 13:30N 35°51' E 014°36'0 0.0
2016-Jul-24 12:33N 35°51' E 014°36'0 0.0
2016-Jul-24 11:33N 35°51' E 014°36'0 0.0
2016-Jul-24 10:24N 35°51' E 014°36'0 0.0
2016-Jul-24 09:33N 35°51' E 014°36'0 0.0
2016-Jul-24 08:33N 35°51' E 014°36'0 0.0
2016-Jul-24 07:30N 35°51' E 014°36'0 0.0
2016-Jul-24 06:33N 35°51' E 014°36'0 0.0
2016-Jul-24 05:33N 35°51' E 014°36'0 0.0
2016-Jul-24 04:27N 35°51' E 014°36'0 0.0
2016-Jul-24 03:33N 35°51' E 014°36'0 0.0
2016-Jul-24 02:33N 35°51' E 014°36'0 0.0
2016-Jul-24 01:21N 35°51' E 014°36'0 0.0
2016-Jul-23 22:09N 35°51' E 014°36'0 0.1
2016-Jul-23 21:30N 35°51' E 014°36'0 0.0
2016-Jul-23 20:33N 35°51' E 014°36'0 0.0
2016-Jul-23 19:27N 35°51' E 014°36'0 0.0
2016-Jul-23 18:33N 35°51' E 014°36'0 0.0
2016-Jul-23 17:33N 35°51' E 014°36'0 0.0
2016-Jul-23 16:33N 35°51' E 014°36'0 0.0
2016-Jul-23 14:30N 35°51' E 014°36'0 0.0
2016-Jul-23 13:33N 35°51' E 014°36'0 0.0
2016-Jul-23 12:33N 35°51' E 014°36'0 0.0
2016-Jul-23 11:33N 35°51' E 014°36'1 1.4
2016-Jul-23 10:33N 35°49' E 014°35'2 2.0
2016-Jul-23 09:33N 35°49' E 014°33'0 0.0
2016-Jul-23 08:33N 35°49' E 014°33'0 0.0
2016-Jul-23 07:33N 35°49' E 014°33'0 0.0
2016-Jul-23 04:17N 35°49' E 014°33'0 0.0
2016-Jul-23 03:33N 35°49' E 014°33'0 0.0
2016-Jul-23 02:33N 35°49' E 014°33'0 0.0
2016-Jul-23 01:32N 35°49' E 014°33'0 0.0
2016-Jul-22 23:33N 35°49' E 014°33'0 0.3
2016-Jul-22 22:33N 35°49' E 014°33'2 1.7
2016-Jul-22 21:33N 35°49' E 014°35'0 0.0
2016-Jul-22 20:33N 35°49' E 014°35'1 0.7
2016-Jul-22 19:33N 35°49' E 014°36'7 7.1
2016-Jul-22 18:33N 35°52' E 014°44'1 0.7
2016-Jul-22 17:34N 35°53' E 014°45'0 0.0
2016-Jul-22 16:33N 35°53' E 014°45'0 0.0
2016-Jul-22 15:33N 35°53' E 014°45'0 0.0
2016-Jul-22 14:34N 35°53' E 014°45'0 0.0
2016-Jul-22 13:10N 35°53' E 014°45'0 0.0
2016-Jul-22 12:33N 35°53' E 014°45'6 6.1
2016-Jul-22 11:33N 35°50' E 014°38'5 4.7
2016-Jul-22 10:33N 35°49' E 014°32'0 0.0
2016-Jul-22 09:33N 35°49' E 014°32'0 0.0
2016-Jul-21 20:33N 35°49' E 014°33'0 0.0
2016-Jul-21 19:32N 35°49' E 014°33'0 0.0
2016-Jul-21 18:27N 35°49' E 014°33'0 0.0
2016-Jul-21 17:33N 35°49' E 014°33'0 0.0
2016-Jul-21 16:08N 35°49' E 014°33'0 0.0
2016-Jul-21 15:30N 35°49' E 014°33'0 0.0
2016-Jul-21 13:25N 35°49' E 014°33'0 0.4
2016-Jul-21 12:33N 35°49' E 014°32'2 2.2
2016-Jul-21 11:33N 35°49' E 014°35'0 0.0
2016-Jul-21 10:33N 35°49' E 014°35'0 0.0
2016-Jul-21 09:33N 35°49' E 014°35'0 0.0
2016-Jul-21 08:33N 35°49' E 014°35'0 0.1
2016-Jul-21 07:34N 35°49' E 014°35'5 5.5
2016-Jul-21 06:33N 35°54' E 014°32'2 0.3
2016-Jul-20 22:30N 35°53' E 014°30'0 0.0
2016-Jul-20 21:11N 35°53' E 014°30'0 0.0
2016-Jul-20 20:33N 35°53' E 014°30'0 0.0
2016-Jul-20 19:33N 35°53' E 014°30'0 0.0
2016-Jul-20 18:33N 35°53' E 014°30'1 0.3
2016-Jul-20 14:30N 35°54' E 014°31'6 6.4
2016-Jul-20 13:34N 35°55' E 014°39'5 0.3
2016-Jul-19 18:08N 35°50' E 014°36'0 0.1
2016-Jul-19 17:26N 35°50' E 014°36'1 0.3
2016-Jul-19 15:28N 35°49' E 014°35'0 0.0
2016-Jul-19 14:31N 35°49' E 014°35'0 0.0
2016-Jul-19 13:31N 35°49' E 014°35'0 0.0
2016-Jul-19 12:31N 35°49' E 014°35'0 0.0
2016-Jul-19 11:31N 35°49' E 014°35'0 0.0
2016-Jul-19 10:31N 35°49' E 014°35'0 0.0
2016-Jul-19 09:31N 35°49' E 014°35'0 0.2
2016-Jul-19 08:33N 35°49' E 014°35'5 5.5
2016-Jul-19 07:33N 35°54' E 014°33'2 2.2
2016-Jul-19 06:31N 35°53' E 014°30'6 0.2
2016-Jul-17 18:22N 35°49' E 014°35'0 0.0
2016-Jul-17 17:31N 35°49' E 014°35'0 0.0
2016-Jul-17 16:31N 35°49' E 014°35'0 0.0
2016-Jul-17 15:31N 35°49' E 014°35'0 0.0
2016-Jul-17 14:13N 35°49' E 014°35'  

Dump ship's entire track history